Signet Intruder — WDH4878 — position and weather

sailwx.info

Track history (hours):
 
Tides and Currents Weather Stations Pressure Air Temp Water Temp Dewpoint Dewpoint Depression Visibility Wind Speed Wind Dir Waves Ship Positions

Signet Intruder

Owner: Signet Maritime Corporation, Pascagoula, MS. More information available from US FCC via Universal Licensing System and Coast Guard Vessel Documentation Center.

Last reported at 2017-Nov-26 07:51 UTC. Time now 2017-Dec-15 11:50 UTC.
Position N 25°25' W 080°04'.
Warning: this ship's position is 19 days out of date.

Length 41 m; draft 5 m.

Type: Tug. MMSI: 367125330.

Date/timePositionNaut miles runAvg speedWind from/ knotsBaromVisibWave heightAir tempDewpointWater temp
2017-Nov-26 07:51N 25°25' W 080°04'5 9.5
2017-Nov-26 07:21N 25°30' W 080°02'3 9.3
2017-Nov-26 07:00N 25°33' W 080°02'5 9.3
2017-Nov-26 06:31N 25°38' W 080°02'5 9.4
2017-Nov-26 06:00N 25°43' W 080°02'5 9.1
2017-Nov-26 05:30N 25°47' W 080°02'4 9.0
2017-Nov-26 05:01N 25°52' W 080°02'4 8.9
2017-Nov-26 04:31N 25°56' W 080°01'4 8.7
2017-Nov-26 04:01N 26°00' W 080°01'4 8.7
2017-Nov-26 03:31N 26°05' W 080°00'4 8.7
2017-Nov-26 03:00N 26°09' W 079°59'4 8.8
2017-Nov-26 02:31N 26°13' W 079°59'5 9.2
2017-Nov-26 02:00N 26°18' W 079°58'32 9.3
2017-Nov-25 22:33N 26°50' W 079°57'110.1
2017-Nov-25 22:26N 26°51' W 079°57'410.4
2017-Nov-25 22:01N 26°56' W 079°57'611.3
2017-Nov-25 21:31N 27°01' W 079°59'2511.0
2017-Nov-25 19:11N 27°26' W 080°03'210.7
2017-Nov-25 19:00N 27°28' W 080°03'  
2017-Nov-19 22:15N 30°19' W 081°38'0 0.0
2017-Nov-19 21:46N 30°19' W 081°38'0 0.0
2017-Nov-19 21:28N 30°19' W 081°38'0 0.0
2017-Nov-19 20:59N 30°19' W 081°38'0 0.0
2017-Nov-19 20:24N 30°19' W 081°38'0 0.0
2017-Nov-19 07:04N 30°19' W 081°38'0 0.0
2017-Nov-19 05:59N 30°19' W 081°38'5 0.4
2017-Nov-18 14:39N 30°23' W 081°33'0 0.0
2017-Nov-18 14:30N 30°23' W 081°33'0 0.0
2017-Nov-18 14:00N 30°23' W 081°33'0 0.2
2017-Nov-18 11:55N 30°23' W 081°33'1 3.4
2017-Nov-18 11:30N 30°23' W 081°31'254 8.5
2017-Nov-17 05:44N 26°26' W 079°50'310.6
2017-Nov-17 05:29N 26°23' W 079°50'510.9
2017-Nov-17 05:00N 26°18' W 079°51'511.0
2017-Nov-17 04:30N 26°12' W 079°51'510.8
2017-Nov-17 04:00N 26°07' W 079°51'611.0
2017-Nov-17 03:30N 26°02' W 079°52'611.0
2017-Nov-17 02:59N 25°56' W 079°52'510.9
2017-Nov-17 02:30N 25°50' W 079°52'510.8
2017-Nov-17 02:00N 25°45' W 079°52'  
Track history (hours):
 
Tides and Currents Weather Stations Pressure Air Temp Water Temp Dewpoint Dewpoint Depression Visibility Wind Speed Wind Dir Waves Ship Positions

Signet Intruder

Owner: Signet Maritime Corporation, Pascagoula, MS. More information available from US FCC via Universal Licensing System and Coast Guard Vessel Documentation Center.

Last reported at 2017-Nov-26 07:51 UTC. Time now 2017-Dec-15 11:50 UTC.
Position N 25°25' W 080°04'.
Warning: this ship's position is 19 days out of date.

Length 41 m; draft 5 m.

Type: Tug. MMSI: 367125330.

Date/timePositionNaut miles runAvg speedWind from/ knotsBaromVisibWave heightAir tempDewpointWater temp
2017-Nov-26 07:51N 25°25' W 080°04'5 9.5
2017-Nov-26 07:21N 25°30' W 080°02'3 9.3
2017-Nov-26 07:00N 25°33' W 080°02'5 9.3
2017-Nov-26 06:31N 25°38' W 080°02'5 9.4
2017-Nov-26 06:00N 25°43' W 080°02'5 9.1
2017-Nov-26 05:30N 25°47' W 080°02'4 9.0
2017-Nov-26 05:01N 25°52' W 080°02'4 8.9
2017-Nov-26 04:31N 25°56' W 080°01'4 8.7
2017-Nov-26 04:01N 26°00' W 080°01'4 8.7
2017-Nov-26 03:31N 26°05' W 080°00'4 8.7
2017-Nov-26 03:00N 26°09' W 079°59'4 8.8
2017-Nov-26 02:31N 26°13' W 079°59'5 9.2
2017-Nov-26 02:00N 26°18' W 079°58'32 9.3
2017-Nov-25 22:33N 26°50' W 079°57'110.1
2017-Nov-25 22:26N 26°51' W 079°57'410.4
2017-Nov-25 22:01N 26°56' W 079°57'611.3
2017-Nov-25 21:31N 27°01' W 079°59'2511.0
2017-Nov-25 19:11N 27°26' W 080°03'210.7
2017-Nov-25 19:00N 27°28' W 080°03'  
2017-Nov-19 22:15N 30°19' W 081°38'0 0.0
2017-Nov-19 21:46N 30°19' W 081°38'0 0.0
2017-Nov-19 21:28N 30°19' W 081°38'0 0.0
2017-Nov-19 20:59N 30°19' W 081°38'0 0.0
2017-Nov-19 20:24N 30°19' W 081°38'0 0.0
2017-Nov-19 07:04N 30°19' W 081°38'0 0.0
2017-Nov-19 05:59N 30°19' W 081°38'5 0.4
2017-Nov-18 14:39N 30°23' W 081°33'0 0.0
2017-Nov-18 14:30N 30°23' W 081°33'0 0.0
2017-Nov-18 14:00N 30°23' W 081°33'0 0.2
2017-Nov-18 11:55N 30°23' W 081°33'1 3.4
2017-Nov-18 11:30N 30°23' W 081°31'254 8.5
2017-Nov-17 05:44N 26°26' W 079°50'310.6
2017-Nov-17 05:29N 26°23' W 079°50'510.9
2017-Nov-17 05:00N 26°18' W 079°51'511.0
2017-Nov-17 04:30N 26°12' W 079°51'510.8
2017-Nov-17 04:00N 26°07' W 079°51'611.0
2017-Nov-17 03:30N 26°02' W 079°52'611.0
2017-Nov-17 02:59N 25°56' W 079°52'510.9
2017-Nov-17 02:30N 25°50' W 079°52'510.8
2017-Nov-17 02:00N 25°45' W 079°52'  

Dump ship's entire track history